Terminal Aerodrome Forecast
Issued by NWS

Current Version | Previous Version | Graphics & Text | Print | Product List | Glossary On
Versions: 1 2 3 4 5 6 7 8 9 10 11 12 13 14 15 16 17 18 19 20 21 22 23
579
FTUS41 KRLX 231137
TAFCKB
TAF
KCKB 231137Z 2312/2412 33003KT P6SM OVC007
     FM231500 00000KT P6SM BKN016
     FM231600 34004KT P6SM VCSH SCT040
     FM232000 35005KT 3SM -SHRA VCTS BKN040CB
     FM232200 00000KT P6SM SCT070
     FM240700 00000KT 4SM BR SCT045
     FM240800 00000KT 2SM BR FEW045=

USA.gov is the U.S. government's official web portal to all federal, state and local government web resources and services.